Time;durP1;ratioP1;P1;durP2;ratioP2;P2;SDS_P1;SDS_P2;PMS_P1;PMS_P2;Temp;Humidity;BMP_temperature;BMP_pressure;BME280_temperature;BME280_humidity;BME280_pressure;Samples;Min_cycle;Max_cycle;Signal;HPM_P1;HPM_P2
2023/03/24 00:00:04;;;;;;;;;;;;;;;9.31;95.36;99779.84;329822;29;2038;-77
2023/03/24 00:00:16;;;;;;;;;;;;;;;9.32;95.30;99776.31;328122;29;6431;-77
2023/03/24 00:00:27;;;;;;;;;;;;;;;9.32;95.53;99776.31;328940;30;3349;-78
2023/03/24 00:00:37;;;;;;;;;;;;;;;9.33;95.45;99778.03;327144;30;1267;-78
2023/03/24 00:00:47;;;;;;;;;;;;;;;9.33;95.36;99778.03;325953;30;1711;-78
2023/03/24 00:00:59;;;;;;;;;;;;;;;9.34;95.13;99784.97;325186;30;1668;-77
2023/03/24 00:01:09;;;;;;;;;;;;;;;9.33;95.81;99783.25;325766;30;4911;-78
2023/03/24 00:01:20;;;;;;;;;;;;;;;9.35;95.67;99776.22;324745;30;1689;-79
2023/03/24 00:01:30;;;;;;;;;;;;;;;9.33;95.50;99775.44;322441;30;2712;-78
2023/03/24 00:01:40;;;;;;;;;;;;;;;9.33;95.31;99778.03;322204;30;2942;-78
2023/03/24 00:01:51;;;;;;;;;;;;;;;9.32;95.62;99782.41;322853;30;3600;-78
2023/03/24 00:02:01;;;;;;;;;;;;;;;9.32;95.53;99776.31;316582;30;2909;-79
2023/03/24 00:02:12;;;;;;;;;;;;;;;9.31;95.24;99779.84;313365;31;3019;-78
2023/03/24 00:02:22;;;;;;;;;;;;;;;9.32;95.37;99776.31;316599;31;925;-78
2023/03/24 00:02:36;;;;;;;;;;;;;;;9.33;95.29;99778.03;314441;31;3516;-77
2023/03/24 00:02:47;;;;;;;;;;;;;;;9.31;95.59;99779.84;316542;31;2987;-79
2023/03/24 00:03:00;;;;;;;;;;;;;;;9.31;95.69;99774.63;317767;31;2424;-78
2023/03/24 00:03:11;;;;;;;;;;;;;;;9.30;95.44;99780.75;314700;31;2342;-78
2023/03/24 00:03:24;;;;;;;;;;;;;;;9.31;95.46;99782.47;311795;31;5077;-78
2023/03/24 00:03:35;;;;;;;;;;;;;;;9.31;95.26;99785.91;307724;32;1377;-78
2023/03/24 00:03:47;;;;;;;;;;;;;;;9.30;95.17;99779.00;305777;31;3921;-78
2023/03/24 00:03:57;;;;;;;;;;;;;;;9.30;95.18;99778.13;303997;32;4010;-78
2023/03/24 00:04:08;;;;;;;;;;;;;;;9.29;95.52;99773.81;303033;32;3769;-77
2023/03/24 00:04:18;;;;;;;;;;;;;;;9.28;95.76;99785.16;301133;32;4107;-78
2023/03/24 00:04:29;;;;;;;;;;;;;;;9.25;95.93;99777.44;301926;32;4668;-77
2023/03/24 00:04:42;;;;;;;;;;;;;;;9.25;96.06;99782.66;299300;32;4575;-78
2023/03/24 00:04:52;;;;;;;;;;;;;;;9.25;95.76;99775.69;293788;33;3189;-76
2023/03/24 00:05:12;;;;;;;;;;;;;;;9.25;95.84;99780.03;291610;34;848;-77
2023/03/24 00:05:23;;;;;;;;;;;;;;;9.24;96.04;99783.56;288629;34;1396;-78
2023/03/24 00:05:33;;;;;;;;;;;;;;;9.23;96.08;99777.47;289355;34;3760;-78
2023/03/24 00:05:44;;;;;;;;;;;;;;;9.25;95.95;99780.03;289501;33;5212;-80
2023/03/24 00:05:57;;;;;;;;;;;;;;;9.24;96.09;99784.41;289508;33;5097;-78
2023/03/24 00:06:09;;;;;;;;;;;;;;;9.23;96.13;99785.31;283023;35;1300;-78
2023/03/24 00:06:21;;;;;;;;;;;;;;;9.23;96.12;99787.06;284703;34;2049;-78
2023/03/24 00:06:33;;;;;;;;;;;;;;;9.23;95.79;99787.06;283340;34;6704;-77
2023/03/24 00:06:43;;;;;;;;;;;;;;;9.20;96.03;99780.19;285751;34;7713;-78
2023/03/24 00:06:54;;;;;;;;;;;;;;;9.19;96.08;99785.47;287714;34;882;-78
2023/03/24 00:07:04;;;;;;;;;;;;;;;9.19;95.96;99786.31;279781;34;7791;-78
2023/03/24 00:07:15;;;;;;;;;;;;;;;9.20;96.02;99787.16;277714;35;5228;-78
2023/03/24 00:09:21;;;;;;;;;;;;;;;9.19;96.13;99793.28;2499215;27;20342;-79
2023/03/24 00:09:31;;;;;;;;;;;;;;;9.20;96.07;99787.16;354443;27;2780;-77
2023/03/24 00:09:42;;;;;;;;;;;;;;;9.18;96.50;99784.59;352323;27;4731;-78
2023/03/24 00:09:52;;;;;;;;;;;;;;;9.21;96.49;99791.50;350606;28;1300;-78
2023/03/24 00:10:03;;;;;;;;;;;;;;;9.21;96.38;99788.88;349302;28;1218;-78
2023/03/24 00:10:16;;;;;;;;;;;;;;;9.20;95.94;99790.63;349285;28;1247;-78
2023/03/24 00:10:29;;;;;;;;;;;;;;;9.23;95.86;99787.06;348727;28;2903;-78
2023/03/24 00:10:41;;;;;;;;;;;;;;;9.23;95.98;99792.28;348083;28;901;-78
2023/03/24 00:10:52;;;;;;;;;;;;;;;9.24;95.94;99791.41;347932;28;1252;-78
2023/03/24 00:11:06;;;;;;;;;;;;;;;9.23;95.85;99787.94;346560;28;1273;-78
2023/03/24 00:11:18;;;;;;;;;;;;;;;9.22;95.67;99786.22;346434;28;5012;-78
2023/03/24 00:11:28;;;;;;;;;;;;;;;9.22;95.89;99781.00;348886;28;994;-78
2023/03/24 00:11:39;;;;;;;;;;;;;;;9.22;95.97;99786.22;345177;28;1468;-78
2023/03/24 00:11:49;;;;;;;;;;;;;;;9.24;95.96;99791.41;347926;28;866;-78
2023/03/24 00:12:00;;;;;;;;;;;;;;;9.23;95.82;99789.69;346299;28;3033;-78
2023/03/24 00:12:12;;;;;;;;;;;;;;;9.23;96.07;99784.47;345295;28;861;-78
2023/03/24 00:12:24;;;;;;;;;;;;;;;9.23;96.01;99787.06;346465;28;1251;-78
2023/03/24 00:12:37;;;;;;;;;;;;;;;9.23;96.03;99787.06;346558;28;1298;-79
2023/03/24 00:12:48;;;;;;;;;;;;;;;9.23;96.12;99787.06;345777;28;5104;-78
2023/03/24 00:12:58;;;;;;;;;;;;;;;9.25;95.77;99790.50;347805;28;1307;-79
2023/03/24 00:13:09;;;;;;;;;;;;;;;9.23;95.67;99781.84;347943;28;944;-78
2023/03/24 00:13:19;;;;;;;;;;;;;;;9.24;96.25;99780.94;349331;28;1384;-78
2023/03/24 00:13:29;;;;;;;;;;;;;;;9.23;95.85;99792.28;345113;28;2537;-78
2023/03/24 00:13:39;;;;;;;;;;;;;;;9.22;96.20;99785.38;346280;28;3076;-78
2023/03/24 00:13:50;;;;;;;;;;;;;;;9.22;96.12;99785.38;346743;28;804;-78
2023/03/24 00:14:01;;;;;;;;;;;;;;;9.21;96.13;99788.88;347975;28;1481;-79
2023/03/24 00:14:11;;;;;;;;;;;;;;;9.21;96.20;99791.50;347294;28;3027;-78
2023/03/24 00:14:22;;;;;;;;;;;;;;;9.21;96.22;99786.28;342732;28;4166;-78
2023/03/24 00:14:32;;;;;;;;;;;;;;;9.20;96.01;99787.16;343893;28;1201;-78
2023/03/24 00:14:45;;;;;;;;;;;;;;;9.21;96.19;99784.50;348102;28;1196;-78
2023/03/24 00:14:55;;;;;;;;;;;;;;;9.21;96.36;99786.28;349234;28;840;-78
2023/03/24 00:15:07;;;;;;;;;;;;;;;9.20;95.93;99782.81;344410;28;4898;-80
2023/03/24 00:15:19;;;;;;;;;;;;;;;9.19;95.99;99785.47;346480;28;1102;-78
2023/03/24 00:15:30;;;;;;;;;;;;;;;9.16;96.06;99785.56;347710;28;1235;-79
2023/03/24 00:15:40;;;;;;;;;;;;;;;9.18;96.08;99788.97;346282;28;1538;-79
2023/03/24 00:15:50;;;;;;;;;;;;;;;9.17;96.17;99784.66;342481;28;3059;-78
2023/03/24 00:16:01;;;;;;;;;;;;;;;9.17;96.27;99788.13;346474;28;3354;-77
2023/03/24 00:16:11;;;;;;;;;;;;;;;9.15;96.62;99781.25;345194;28;1298;-78
2023/03/24 00:16:23;;;;;;;;;;;;;;;9.14;96.46;99782.16;346590;28;1302;-78
2023/03/24 00:16:37;;;;;;;;;;;;;;;9.15;96.22;99786.47;344620;28;3401;-77
2023/03/24 00:16:48;;;;;;;;;;;;;;;9.12;96.49;99786.56;344836;28;856;-78
2023/03/24 00:16:59;;;;;;;;;;;;;;;9.13;96.61;99783.03;345161;28;868;-79
2023/03/24 00:17:11;;;;;;;;;;;;;;;9.12;96.54;99781.34;343956;28;834;-78
2023/03/24 00:17:24;;;;;;;;;;;;;;;9.12;96.64;99782.19;341824;28;4433;-78
2023/03/24 00:17:35;;;;;;;;;;;;;;;9.12;96.59;99779.59;343447;28;1338;-80
2023/03/24 00:17:48;;;;;;;;;;;;;;;9.12;96.61;99778.72;343026;28;1800;-77
2023/03/24 00:17:59;;;;;;;;;;;;;;;9.12;96.28;99784.81;341196;28;1608;-79
2023/03/24 00:18:09;;;;;;;;;;;;;;;9.12;96.28;99781.34;335664;29;2187;-78
2023/03/24 00:18:21;;;;;;;;;;;;;;;9.12;96.38;99776.13;334387;29;4281;-78
2023/03/24 00:18:31;;;;;;;;;;;;;;;9.12;96.46;99779.59;339291;29;1245;-78
2023/03/24 00:18:41;;;;;;;;;;;;;;;9.13;96.68;99783.03;339411;29;1423;-77
2023/03/24 00:18:53;;;;;;;;;;;;;;;9.13;96.20;99785.66;340002;29;842;-78
2023/03/24 00:19:03;;;;;;;;;;;;;;;9.11;96.43;99777.88;338437;29;897;-79
2023/03/24 00:19:14;;;;;;;;;;;;;;;9.12;96.28;99776.97;333972;29;1340;-78
2023/03/24 00:19:24;;;;;;;;;;;;;;;9.13;96.45;99785.66;332194;29;1225;-78
2023/03/24 00:19:37;;;;;;;;;;;;;;;9.11;96.91;99783.09;332269;29;2983;-77
2023/03/24 00:19:49;;;;;;;;;;;;;;;9.10;96.44;99781.38;333608;29;5416;-78
2023/03/24 00:19:59;;;;;;;;;;;;;;;9.11;96.52;99783.09;336622;29;1849;-77
2023/03/24 00:20:14;;;;;;;;;;;;;;;9.13;96.33;99786.50;337313;29;878;-78
2023/03/24 00:20:25;;;;;;;;;;;;;;;9.12;96.32;99778.72;334725;29;2874;-78
2023/03/24 00:20:36;;;;;;;;;;;;;;;9.13;96.76;99777.81;333068;29;3005;-78
2023/03/24 00:20:46;;;;;;;;;;;;;;;9.12;96.46;99782.19;332031;29;1214;-78
2023/03/24 00:20:57;;;;;;;;;;;;;;;9.11;96.64;99782.25;331961;29;1210;-79
2023/03/24 00:21:07;;;;;;;;;;;;;;;9.12;96.56;99773.50;329721;30;1198;-79
2023/03/24 00:21:20;;;;;;;;;;;;;;;9.13;96.75;99780.44;327063;29;4226;-78
2023/03/24 00:21:31;;;;;;;;;;;;;;;9.13;96.42;99775.22;324767;30;2013;-78
2023/03/24 00:21:42;;;;;;;;;;;;;;;9.11;96.68;99777.03;322281;30;2303;-78
2023/03/24 00:21:54;;;;;;;;;;;;;;;9.12;96.76;99779.59;323606;30;1528;-78
2023/03/24 00:22:05;;;;;;;;;;;;;;;9.11;96.43;99780.47;319042;30;2903;-78
2023/03/24 00:22:15;;;;;;;;;;;;;;;9.10;96.91;99780.56;319892;30;2480;-77
2023/03/24 00:22:27;;;;;;;;;;;;;;;9.11;96.77;99777.88;317634;30;2575;-78
2023/03/24 00:22:41;;;;;;;;;;;;;;;9.11;96.96;99774.41;318979;30;1441;-78
2023/03/24 00:22:55;;;;;;;;;;;;;;;9.10;96.61;99780.56;316952;30;5058;-78
2023/03/24 00:23:05;;;;;;;;;;;;;;;9.11;96.92;99783.09;319976;30;1457;-78
2023/03/24 00:23:16;;;;;;;;;;;;;;;9.11;96.56;99784.84;317257;31;1886;-78
2023/03/24 00:23:26;;;;;;;;;;;;;;;9.11;96.94;99782.25;314368;31;2199;-78
2023/03/24 00:23:37;;;;;;;;;;;;;;;9.10;96.42;99775.34;307358;31;3096;-77
2023/03/24 00:23:48;;;;;;;;;;;;;;;9.10;96.61;99785.78;308052;31;3376;-78
2023/03/24 00:24:00;;;;;;;;;;;;;;;9.08;96.64;99783.22;306766;31;3413;-79
2023/03/24 00:24:10;;;;;;;;;;;;;;;9.09;97.38;99784.06;308240;31;3380;-78
2023/03/24 00:24:22;;;;;;;;;;;;;;;9.07;97.28;99778.91;305039;32;2834;-78
2023/03/24 00:24:33;;;;;;;;;;;;;;;9.07;97.31;99781.50;305463;31;5332;-78
2023/03/24 00:24:45;;;;;;;;;;;;;;;9.06;96.86;99778.94;305573;32;3653;-78
2023/03/24 00:24:55;;;;;;;;;;;;;;;9.08;97.02;99779.75;304082;32;3030;-78
2023/03/24 00:25:05;;;;;;;;;;;;;;;9.06;97.26;99778.94;301523;32;3059;-79
2023/03/24 00:25:16;;;;;;;;;;;;;;;9.05;97.17;99778.09;300643;32;4433;-78
2023/03/24 00:25:28;;;;;;;;;;;;;;;9.05;96.95;99780.72;301775;32;2874;-78
2023/03/24 00:25:38;;;;;;;;;;;;;;;9.05;97.11;99774.63;301454;32;885;-78
2023/03/24 00:25:57;;;;;;;;;;;;;;;9.05;96.86;99777.25;295656;32;3536;-78
2023/03/24 00:26:11;;;;;;;;;;;;;;;9.05;96.80;99774.63;296358;33;1232;-78
2023/03/24 00:26:21;;;;;;;;;;;;;;;9.06;97.30;99778.94;297367;33;1414;-79
2023/03/24 00:26:31;;;;;;;;;;;;;;;9.05;97.29;99782.47;294758;33;4193;-79
2023/03/24 00:26:42;;;;;;;;;;;;;;;9.04;97.01;99775.53;291909;33;4746;-78
2023/03/24 00:26:56;;;;;;;;;;;;;;;9.04;97.06;99772.94;293584;33;1340;-79
2023/03/24 00:27:06;;;;;;;;;;;;;;;9.02;97.35;99772.13;296613;33;952;-79
2023/03/24 00:27:17;;;;;;;;;;;;;;;9.02;96.98;99772.13;296113;33;3495;-79
2023/03/24 00:27:29;;;;;;;;;;;;;;;9.02;97.18;99775.59;292560;33;4886;-79
2023/03/24 00:27:39;;;;;;;;;;;;;;;9.02;97.39;99772.13;293461;33;867;-79
2023/03/24 00:27:50;;;;;;;;;;;;;;;9.03;96.94;99779.06;289547;33;4655;-79
2023/03/24 00:28:02;;;;;;;;;;;;;;;9.00;97.22;99775.63;288962;33;6346;-79
2023/03/24 00:28:12;;;;;;;;;;;;;;;8.99;97.44;99773.94;284332;34;6124;-78
2023/03/24 00:28:23;;;;;;;;;;;;;;;8.99;97.31;99773.94;283935;34;1251;-79
2023/03/24 00:28:33;;;;;;;;;;;;;;;8.98;97.14;99772.22;283104;34;7138;-79
2023/03/24 00:28:46;;;;;;;;;;;;;;;8.99;97.54;99773.94;280479;34;6121;-78
2023/03/24 00:28:57;;;;;;;;;;;;;;;8.97;97.54;99770.50;275320;35;5494;-79
2023/03/24 00:29:07;;;;;;;;;;;;;;;8.98;97.55;99772.22;275154;35;1258;-79
2023/03/24 00:29:18;;;;;;;;;;;;;;;8.97;97.76;99773.13;273900;35;6782;-79
2023/03/24 00:29:29;;;;;;;;;;;;;;;8.97;97.44;99774.88;273609;35;5376;-79
2023/03/24 00:29:40;;;;;;;;;;;;;;;8.95;97.39;99772.31;274232;35;4450;-78
2023/03/24 00:29:50;;;;;;;;;;;;;;;8.96;97.77;99779.25;276236;35;3192;-78
2023/03/24 00:30:02;;;;;;;;;;;;;;;8.96;97.58;99779.25;274393;35;6688;-77
2023/03/24 00:31:43;;;;;;;;;;;;;;;8.99;97.92;99779.16;2499255;27;19919;-79
2023/03/24 00:31:54;;;;;;;;;;;;;;;8.99;97.65;99773.94;353594;28;1303;-78
2023/03/24 00:32:05;;;;;;;;;;;;;;;8.99;97.73;99779.16;350203;28;4699;-80
2023/03/24 00:32:16;;;;;;;;;;;;;;;8.99;97.86;99778.28;350583;28;3164;-79
2023/03/24 00:32:29;;;;;;;;;;;;;;;8.98;97.99;99772.22;349320;28;899;-79
2023/03/24 00:32:39;;;;;;;;;;;;;;;8.99;97.90;99768.69;350726;28;1385;-79
2023/03/24 00:32:50;;;;;;;;;;;;;;;8.99;97.94;99773.06;350347;28;2918;-79
2023/03/24 00:33:01;;;;;;;;;;;;;;;8.98;97.66;99772.22;351676;28;3114;-78
2023/03/24 00:33:12;;;;;;;;;;;;;;;8.96;97.71;99774.03;352103;28;842;-79
2023/03/24 00:33:23;;;;;;;;;;;;;;;8.95;97.58;99772.31;348588;28;1315;-79
2023/03/24 00:33:33;;;;;;;;;;;;;;;8.96;97.91;99771.41;350674;28;1838;-78
2023/03/24 00:33:49;;;;;;;;;;;;;;;8.95;97.61;99774.06;350885;28;4897;-77
2023/03/24 00:34:01;;;;;;;;;;;;;;;8.95;97.90;99771.47;352155;28;1437;-77
2023/03/24 00:34:12;;;;;;;;;;;;;;;8.96;97.92;99768.81;352088;28;1230;-76
2023/03/24 00:34:22;;;;;;;;;;;;;;;8.96;97.80;99768.81;350799;28;2859;-77
2023/03/24 00:34:37;;;;;;;;;;;;;;;8.96;97.86;99768.81;350515;28;1322;-77
2023/03/24 00:34:48;;;;;;;;;;;;;;;8.94;97.54;99770.59;349437;28;1292;-79
2023/03/24 00:34:59;;;;;;;;;;;;;;;8.96;97.89;99765.34;349447;28;832;-78
2023/03/24 00:35:11;;;;;;;;;;;;;;;8.95;97.57;99772.31;350004;28;4484;-77
2023/03/24 00:35:22;;;;;;;;;;;;;;;8.96;97.45;99768.81;350309;28;3049;-77
2023/03/24 00:35:33;;;;;;;;;;;;;;;8.96;97.75;99766.19;351982;28;1008;-78
2023/03/24 00:35:44;;;;;;;;;;;;;;;8.95;97.50;99767.09;350744;28;1373;-77
2023/03/24 00:35:56;;;;;;;;;;;;;;;8.95;97.49;99772.31;346883;28;3503;-78
2023/03/24 00:36:07;;;;;;;;;;;;;;;8.95;97.42;99771.47;346415;28;2926;-78
2023/03/24 00:36:19;;;;;;;;;;;;;;;8.93;98.01;99770.66;350652;28;1451;-79
2023/03/24 00:36:29;;;;;;;;;;;;;;;8.94;97.72;99769.75;349215;28;1345;-78
2023/03/24 00:36:39;;;;;;;;;;;;;;;8.93;98.07;99768.91;351290;28;2907;-78
2023/03/24 00:36:50;;;;;;;;;;;;;;;8.93;97.64;99768.91;349009;28;4768;-78
2023/03/24 00:37:00;;;;;;;;;;;;;;;8.95;98.05;99771.47;353489;28;1292;-78
2023/03/24 00:37:10;;;;;;;;;;;;;;;8.94;98.06;99767.13;349387;28;1206;-77
2023/03/24 00:37:21;;;;;;;;;;;;;;;8.94;97.71;99765.38;349699;28;1088;-78
2023/03/24 00:37:31;;;;;;;;;;;;;;;8.94;97.95;99762.78;345944;28;3034;-77
2023/03/24 00:37:43;;;;;;;;;;;;;;;8.95;98.07;99771.47;349074;28;1048;-78
2023/03/24 00:37:53;;;;;;;;;;;;;;;8.95;97.58;99768.84;348636;28;1338;-79
2023/03/24 00:38:04;;;;;;;;;;;;;;;8.94;97.74;99770.59;349010;28;1404;-78
2023/03/24 00:38:14;;;;;;;;;;;;;;;8.93;98.01;99763.69;346452;28;3763;-76
2023/03/24 00:38:25;;;;;;;;;;;;;;;8.93;97.70;99768.91;346215;28;1096;-78
2023/03/24 00:38:35;;;;;;;;;;;;;;;8.93;97.64;99765.44;346805;28;1337;-78
2023/03/24 00:38:47;;;;;;;;;;;;;;;8.92;97.60;99772.41;347870;28;1316;-82
2023/03/24 00:38:57;;;;;;;;;;;;;;;8.92;97.89;99764.59;349403;28;887;-77
2023/03/24 00:39:07;;;;;;;;;;;;;;;8.93;97.89;99768.91;349346;28;2952;-77
2023/03/24 00:39:18;;;;;;;;;;;;;;;8.93;97.94;99768.03;349212;28;1018;-77
2023/03/24 00:39:28;;;;;;;;;;;;;;;8.92;97.76;99761.97;346539;28;824;-78
2023/03/24 00:39:40;;;;;;;;;;;;;;;8.93;98.02;99768.03;345920;28;1243;-78
2023/03/24 00:39:50;;;;;;;;;;;;;;;8.93;97.81;99768.91;347202;28;2804;-77
2023/03/24 00:40:01;;;;;;;;;;;;;;;8.92;98.16;99769.78;347633;28;2853;-77
2023/03/24 00:40:12;;;;;;;;;;;;;;;8.93;98.15;99768.91;346198;28;1693;-79
2023/03/24 00:40:22;;;;;;;;;;;;;;;8.93;97.85;99768.91;345194;28;1269;-79
2023/03/24 00:40:32;;;;;;;;;;;;;;;8.93;97.56;99773.25;344695;28;2900;-76
2023/03/24 00:40:47;;;;;;;;;;;;;;;8.92;97.67;99767.19;343078;28;2999;-78
2023/03/24 00:40:57;;;;;;;;;;;;;;;8.92;98.19;99767.19;343930;28;790;-78
2023/03/24 00:41:12;;;;;;;;;;;;;;;8.93;97.93;99766.28;344294;28;1287;-78
2023/03/24 00:41:25;;;;;;;;;;;;;;;8.92;97.83;99764.59;343517;28;2760;-78
2023/03/24 00:41:35;;;;;;;;;;;;;;;8.92;97.81;99769.78;343554;28;1481;-78
2023/03/24 00:41:46;;;;;;;;;;;;;;;8.93;98.07;99768.91;342538;28;1317;-77
2023/03/24 00:41:58;;;;;;;;;;;;;;;8.94;97.82;99768.00;340840;28;2274;-78
2023/03/24 00:42:08;;;;;;;;;;;;;;;8.94;97.78;99770.59;339076;29;2732;-77
2023/03/24 00:42:18;;;;;;;;;;;;;;;8.94;97.64;99765.38;335652;29;4930;-77
2023/03/24 00:42:31;;;;;;;;;;;;;;;8.95;97.59;99772.31;334702;29;1182;-78
2023/03/24 00:42:44;;;;;;;;;;;;;;;8.93;97.50;99774.13;335675;29;1585;-77
2023/03/24 00:42:54;;;;;;;;;;;;;;;8.91;97.56;99762.88;335538;29;2785;-77
2023/03/24 00:43:05;;;;;;;;;;;;;;;8.90;97.77;99769.00;333926;29;2995;-78
2023/03/24 00:43:15;;;;;;;;;;;;;;;8.90;97.97;99769.00;337239;29;1413;-77
2023/03/24 00:43:27;;;;;;;;;;;;;;;8.91;97.80;99762.88;333582;29;1183;-77
2023/03/24 00:43:37;;;;;;;;;;;;;;;8.90;97.95;99771.59;336249;29;2016;-77
2023/03/24 00:43:48;;;;;;;;;;;;;;;8.90;97.78;99766.38;333725;29;3893;-77
2023/03/24 00:43:58;;;;;;;;;;;;;;;8.90;97.80;99768.13;336004;29;823;-77
2023/03/24 00:44:16;;;;;;;;;;;;;;;8.89;98.06;99762.06;336189;29;2434;-78
2023/03/24 00:44:26;;;;;;;;;;;;;;;8.92;98.20;99763.72;338211;29;3532;-79
2023/03/24 00:44:37;;;;;;;;;;;;;;;8.92;97.89;99767.19;339349;28;5010;-78
2023/03/24 00:44:47;;;;;;;;;;;;;;;8.89;98.20;99762.06;338166;29;2040;-78
2023/03/24 00:44:57;;;;;;;;;;;;;;;8.87;97.89;99763.00;333456;29;1325;-78
2023/03/24 00:45:08;;;;;;;;;;;;;;;8.87;97.86;99769.09;334684;29;1506;-78
2023/03/24 00:45:19;;;;;;;;;;;;;;;8.85;97.84;99760.44;334300;29;5034;-78
2023/03/24 00:45:33;;;;;;;;;;;;;;;8.87;98.05;99769.09;334715;29;1430;-78
2023/03/24 00:45:46;;;;;;;;;;;;;;;8.85;98.03;99770.88;330941;29;1426;-78
2023/03/24 00:46:00;;;;;;;;;;;;;;;8.82;98.21;99768.38;328857;29;2567;-78
2023/03/24 00:46:12;;;;;;;;;;;;;;;8.82;98.16;99762.31;326249;30;2630;-78
2023/03/24 00:46:29;;;;;;;;;;;;;;;8.81;98.26;99769.28;322781;30;3314;-78
2023/03/24 00:46:44;;;;;;;;;;;;;;;8.81;98.13;99760.59;319555;30;3207;-78
2023/03/24 00:46:55;;;;;;;;;;;;;;;8.82;97.91;99764.91;324022;30;2936;-78
2023/03/24 00:47:05;;;;;;;;;;;;;;;8.81;97.91;99771.03;324261;30;2627;-78
2023/03/24 00:47:16;;;;;;;;;;;;;;;8.82;98.15;99770.97;323626;30;1536;-79
2023/03/24 00:47:27;;;;;;;;;;;;;;;8.82;98.30;99770.13;322011;30;3048;-80
2023/03/24 00:47:37;;;;;;;;;;;;;;;8.80;98.25;99766.72;324185;30;4893;-78
2023/03/24 00:47:48;;;;;;;;;;;;;;;8.79;98.40;99763.25;324042;30;2686;-78
2023/03/24 00:47:58;;;;;;;;;;;;;;;8.80;98.61;99767.56;321304;30;1373;-79
2023/03/24 00:48:10;;;;;;;;;;;;;;;8.79;98.23;99765.84;318184;31;3131;-77
2023/03/24 00:48:23;;;;;;;;;;;;;;;8.80;98.46;99761.50;314752;30;4249;-78
2023/03/24 00:48:33;;;;;;;;;;;;;;;8.77;98.43;99757.22;314795;30;4165;-78
2023/03/24 00:48:44;;;;;;;;;;;;;;;8.78;98.35;99761.53;316747;31;846;-76
2023/03/24 00:49:02;;;;;;;;;;;;;;;8.80;98.61;99767.56;315213;31;3885;-77
2023/03/24 00:49:14;;;;;;;;;;;;;;;8.80;98.41;99762.34;313179;31;2746;-77
2023/03/24 00:49:41;;;;;;;;;;;;;;;8.83;98.57;99761.41;314071;31;3626;-77
2023/03/24 00:49:53;;;;;;;;;;;;;;;8.80;98.34;99770.19;307407;31;3553;-77
2023/03/24 00:50:04;;;;;;;;;;;;;;;8.79;98.55;99768.47;306511;31;3966;-77
2023/03/24 00:50:15;;;;;;;;;;;;;;;8.81;98.68;99765.81;306760;32;1262;-77
2023/03/24 00:50:26;;;;;;;;;;;;;;;8.81;98.55;99766.66;300695;32;5960;-77
2023/03/24 00:50:36;;;;;;;;;;;;;;;8.79;98.84;99760.63;297388;32;6339;-76
2023/03/24 00:50:48;;;;;;;;;;;;;;;8.80;98.55;99767.56;297233;33;4989;-77
2023/03/24 00:51:00;;;;;;;;;;;;;;;8.79;98.52;99765.84;296379;33;922;-79
2023/03/24 00:51:12;;;;;;;;;;;;;;;8.79;98.51;99768.47;295000;33;5639;-78
2023/03/24 00:51:23;;;;;;;;;;;;;;;8.78;98.73;99764.16;292386;33;5565;-79
2023/03/24 00:51:37;;;;;;;;;;;;;;;8.78;98.86;99769.38;291206;33;5055;-77
2023/03/24 00:51:47;;;;;;;;;;;;;;;8.78;98.50;99764.16;289538;34;1276;-77
2023/03/24 00:51:57;;;;;;;;;;;;;;;8.77;98.52;99767.66;284905;34;976;-77
2023/03/24 00:52:13;;;;;;;;;;;;;;;8.78;98.81;99768.50;279622;34;6096;-78
2023/03/24 00:54:09;;;;;;;;;;;;;;;8.79;98.12;99765.84;2500374;27;19927;-78
2023/03/24 00:54:29;;;;;;;;;;;;;;;8.78;98.20;99769.38;350737;28;2950;-78
2023/03/24 00:54:40;;;;;;;;;;;;;;;8.78;98.28;99766.75;349234;28;1354;-78
2023/03/24 00:54:53;;;;;;;;;;;;;;;8.77;98.18;99770.28;347839;28;1246;-78
2023/03/24 00:55:04;;;;;;;;;;;;;;;8.75;98.41;99764.25;347506;28;3029;-78
2023/03/24 00:55:15;;;;;;;;;;;;;;;8.76;98.31;99771.16;348579;28;3188;-78
2023/03/24 00:55:27;;;;;;;;;;;;;;;8.75;98.39;99768.59;349306;28;895;-78
2023/03/24 00:55:37;;;;;;;;;;;;;;;8.75;98.40;99759.03;351921;28;1360;-78
2023/03/24 00:55:48;;;;;;;;;;;;;;;8.74;98.84;99766.91;349544;28;2738;-78
2023/03/24 00:55:59;;;;;;;;;;;;;;;8.73;98.56;99773.88;347013;28;2754;-79
2023/03/24 00:56:14;;;;;;;;;;;;;;;8.73;98.86;99767.81;347957;28;1212;-79
2023/03/24 00:56:25;;;;;;;;;;;;;;;8.71;98.71;99762.63;347853;28;1385;-77
2023/03/24 00:56:36;;;;;;;;;;;;;;;8.72;98.82;99771.31;343734;28;4855;-77
2023/03/24 00:56:48;;;;;;;;;;;;;;;8.71;98.87;99767.84;344802;28;3293;-78
2023/03/24 00:57:01;;;;;;;;;;;;;;;8.72;98.92;99769.56;345135;28;1347;-78
2023/03/24 00:57:13;;;;;;;;;;;;;;;8.71;98.98;99767.84;346576;28;1284;-78
2023/03/24 00:57:25;;;;;;;;;;;;;;;8.70;99.05;99768.75;345249;28;4171;-78
2023/03/24 00:57:36;;;;;;;;;;;;;;;8.69;98.81;99769.66;347783;28;1286;-79
2023/03/24 00:57:49;;;;;;;;;;;;;;;8.70;99.08;99762.69;346713;28;1275;-78
2023/03/24 00:58:01;;;;;;;;;;;;;;;8.70;98.74;99773.97;347617;28;1310;-78
2023/03/24 00:58:16;;;;;;;;;;;;;;;8.70;99.21;99765.28;344911;28;2830;-78
2023/03/24 00:58:28;;;;;;;;;;;;;;;8.69;98.84;99764.44;343814;28;1382;-78
2023/03/24 00:58:38;;;;;;;;;;;;;;;8.70;99.23;99760.91;342570;28;998;-78
2023/03/24 00:58:49;;;;;;;;;;;;;;;8.68;99.18;99762.72;341686;28;2991;-78
2023/03/24 00:59:01;;;;;;;;;;;;;;;8.68;98.86;99762.72;341785;28;4766;-79
2023/03/24 00:59:12;;;;;;;;;;;;;;;8.66;99.33;99764.56;341118;29;1284;-78
2023/03/24 00:59:22;;;;;;;;;;;;;;;8.66;99.43;99756.72;341274;29;1396;-78
2023/03/24 00:59:41;;;;;;;;;;;;;;;8.67;99.52;99761.00;339413;28;2643;-78
2023/03/24 00:59:51;;;;;;;;;;;;;;;8.66;99.21;99764.56;341311;28;1408;-78
2023/03/24 01:00:15;;;;;;;;;;;;;;;8.66;99.24;99759.34;340045;29;1311;-78
2023/03/24 01:00:25;;;;;;;;;;;;;;;8.66;99.25;99764.56;342483;28;2674;-77
2023/03/24 01:00:40;;;;;;;;;;;;;;;8.65;99.06;99763.69;344772;28;1112;-78
2023/03/24 01:00:54;;;;;;;;;;;;;;;8.65;99.22;99768.91;346194;28;1210;-78
2023/03/24 01:01:05;;;;;;;;;;;;;;;8.66;99.36;99757.56;344696;28;2884;-78
2023/03/24 01:01:15;;;;;;;;;;;;;;;8.69;99.39;99759.22;346230;28;4547;-78
2023/03/24 01:01:26;;;;;;;;;;;;;;;8.71;98.96;99761.78;347923;28;1360;-78
2023/03/24 01:01:37;;;;;;;;;;;;;;;8.71;98.97;99762.63;346552;28;1266;-78
2023/03/24 01:01:48;;;;;;;;;;;;;;;8.68;99.04;99758.34;349098;28;1365;-78
2023/03/24 01:01:58;;;;;;;;;;;;;;;8.69;99.20;99759.22;346798;28;4974;-79
2023/03/24 01:02:10;;;;;;;;;;;;;;;8.67;99.13;99755.78;343920;28;1264;-77
2023/03/24 01:02:23;;;;;;;;;;;;;;;8.67;99.33;99755.78;345732;28;1106;-78
2023/03/24 01:02:33;;;;;;;;;;;;;;;8.65;99.00;99762.84;342297;28;1347;-78
2023/03/24 01:02:45;;;;;;;;;;;;;;;8.64;99.24;99761.13;339887;28;4949;-78
2023/03/24 01:02:55;;;;;;;;;;;;;;;8.63;99.28;99759.44;346563;28;868;-78
2023/03/24 01:03:06;;;;;;;;;;;;;;;8.63;99.30;99756.81;343077;28;1240;-78
2023/03/24 01:03:16;;;;;;;;;;;;;;;8.63;99.04;99749.84;342923;28;958;-78
2023/03/24 01:03:28;;;;;;;;;;;;;;;8.64;99.53;99761.13;340269;29;4410;-78
2023/03/24 01:03:46;;;;;;;;;;;;;;;8.65;99.36;99755.03;342153;28;3092;-78
2023/03/24 01:03:59;;;;;;;;;;;;;;;8.66;98.97;99759.34;339743;29;1293;-78
2023/03/24 01:04:09;;;;;;;;;;;;;;;8.65;99.26;99757.63;335733;29;2950;-78
2023/03/24 01:04:19;;;;;;;;;;;;;;;8.64;99.11;99759.38;332195;29;3110;-77
2023/03/24 01:04:30;;;;;;;;;;;;;;;8.65;98.89;99757.63;330466;29;1645;-77
2023/03/24 01:04:46;;;;;;;;;;;;;;;8.63;99.03;99759.44;332102;29;1218;-79
2023/03/24 01:04:57;;;;;;;;;;;;;;;8.62;98.92;99753.34;330450;29;2036;-77
2023/03/24 01:05:07;;;;;;;;;;;;;;;8.60;99.00;99749.94;325511;29;4627;-77
2023/03/24 01:05:21;;;;;;;;;;;;;;;8.61;99.35;99756.00;328428;30;1496;-79
2023/03/24 01:05:31;;;;;;;;;;;;;;;8.62;99.41;99749.91;326364;30;879;-78
2023/03/24 01:05:47;;;;;;;;;;;;;;;8.62;99.07;99747.28;327995;29;1834;-78
2023/03/24 01:06:01;;;;;;;;;;;;;;;8.62;98.92;99747.28;325312;30;2938;-77
2023/03/24 01:06:11;;;;;;;;;;;;;;;8.61;98.95;99756.88;324987;30;856;-78
2023/03/24 01:06:23;;;;;;;;;;;;;;;8.62;98.76;99752.50;325568;30;2616;-78
2023/03/24 01:06:35;;;;;;;;;;;;;;;8.62;99.26;99752.50;321085;30;4489;-77
2023/03/24 01:06:46;;;;;;;;;;;;;;;8.62;99.26;99755.97;318257;30;2534;-77
2023/03/24 01:06:57;;;;;;;;;;;;;;;8.63;98.91;99749.00;322564;30;828;-78
2023/03/24 01:07:09;;;;;;;;;;;;;;;8.64;98.83;99761.13;324207;30;2290;-77
2023/03/24 01:07:20;;;;;;;;;;;;;;;8.65;99.15;99758.47;320398;30;3095;-77
2023/03/24 01:07:30;;;;;;;;;;;;;;;8.66;98.69;99754.13;320519;30;5069;-78
2023/03/24 01:07:42;;;;;;;;;;;;;;;8.66;98.93;99754.13;321212;30;1443;-78
2023/03/24 01:07:52;;;;;;;;;;;;;;;8.67;98.70;99754.03;323236;30;1288;-78